Time;durP1;ratioP1;P1;durP2;ratioP2;P2;SDS_P1;SDS_P2;PMS_P1;PMS_P2;Temp;Humidity;BMP_temperature;BMP_pressure;BME280_temperature;BME280_humidity;BME280_pressure;Samples;Min_cycle;Max_cycle;Signal;HPM_P1;HPM_P2
2021/07/12 00:01:13;;;;;;;40.42;26.20;;;;;;;15.10;80.92;101576.78;5055539;28;20028;-61
2021/07/12 00:03:38;;;;;;;39.22;25.65;;;;;;;15.08;81.17;101582.22;5055328;28;20080;-61
2021/07/12 00:06:03;;;;;;;37.10;24.75;;;;;;;15.06;80.88;101576.09;5055579;28;20107;-60
2021/07/12 00:08:29;;;;;;;36.40;24.05;;;;;;;15.06;81.35;101581.41;5056664;28;20071;-60
2021/07/12 00:10:54;;;;;;;40.80;27.00;;;;;;;15.08;81.28;101571.53;5074548;28;20029;-60
2021/07/12 00:13:20;;;;;;;39.55;24.88;;;;;;;15.11;81.29;101576.69;5075412;28;20484;-65
2021/07/12 00:15:45;;;;;;;38.03;24.67;;;;;;;15.12;81.04;101580.25;5075576;28;20034;-61
2021/07/12 00:18:11;;;;;;;37.20;24.95;;;;;;;15.13;80.90;101573.94;5073335;28;20107;-60
2021/07/12 00:20:37;;;;;;;46.25;28.10;;;;;;;15.09;81.48;101575.94;5073727;28;20028;-60
2021/07/12 00:23:03;;;;;;;46.95;28.30;;;;;;;15.06;81.49;101565.41;5075266;28;20042;-60
2021/07/12 00:25:29;;;;;;;41.10;25.42;;;;;;;15.05;81.44;101564.56;5075498;28;20536;-61
2021/07/12 00:27:56;;;;;;;47.33;29.33;;;;;;;15.05;81.45;101564.56;5075186;28;20472;-61
2021/07/12 00:30:22;;;;;;;47.35;29.95;;;;;;;15.03;81.97;101550.44;5071603;28;20384;-64
2021/07/12 00:32:49;;;;;;;48.50;28.77;;;;;;;15.02;81.58;101555.84;5074764;28;20125;-65
2021/07/12 00:35:15;;;;;;;50.45;30.58;;;;;;;15.01;82.20;101556.78;5054912;28;20059;-62
2021/07/12 00:37:41;;;;;;;48.67;29.27;;;;;;;15.01;82.16;101551.44;5054843;28;20384;-63
2021/07/12 00:40:11;;;;;;;51.50;30.35;;;;;;;15.04;82.21;101557.50;5064799;28;20036;-63
2021/07/12 00:42:38;;;;;;;54.40;32.83;;;;;;;15.07;82.25;101553.81;5072888;28;20100;-63
2021/07/12 00:45:07;;;;;;;59.00;34.45;;;;;;;15.15;82.36;101550.72;5074730;28;20029;-62
2021/07/12 00:47:33;;;;;;;56.03;33.42;;;;;;;15.24;82.48;101544.91;5074514;28;20043;-63
2021/07/12 00:49:59;;;;;;;57.20;33.78;;;;;;;15.32;81.73;101537.38;5072762;28;20028;-65
2021/07/12 00:52:24;;;;;;;50.67;31.63;;;;;;;15.38;81.47;101539.72;5073053;28;20036;-63
2021/07/12 00:54:49;;;;;;;56.58;33.67;;;;;;;15.42;81.89;101552.88;5074613;28;20021;-62
2021/07/12 00:57:15;;;;;;;50.70;31.88;;;;;;;15.50;81.65;101547.97;5074507;28;20044;-62
2021/07/12 00:59:41;;;;;;;50.15;31.90;;;;;;;15.59;81.39;101544.81;5074398;28;20025;-61
2021/07/12 01:02:06;;;;;;;56.08;33.20;;;;;;;15.62;81.35;101533.13;5071140;28;20037;-64
2021/07/12 01:04:33;;;;;;;54.42;34.47;;;;;;;15.64;81.55;101526.75;5074427;28;20024;-63
2021/07/12 01:06:58;;;;;;;54.90;33.25;;;;;;;15.68;81.34;101527.44;5072105;28;20119;-63
2021/07/12 01:09:24;;;;;;;52.72;32.60;;;;;;;15.68;81.67;101520.28;5074520;28;20111;-62
2021/07/12 01:11:59;;;;;;;57.35;33.10;;;;;;;15.71;81.62;101524.59;5072577;28;20099;-64
2021/07/12 01:14:50;;;;;;;58.67;34.47;;;;;;;15.75;81.81;101527.94;5071918;28;20085;-64
2021/07/12 01:17:26;;;;;;;53.47;33.73;;;;;;;15.79;81.61;101522.34;5058374;28;20052;-64
2021/07/12 01:20:34;;;;;;;58.83;34.13;;;;;;;15.83;81.50;101509.72;5054099;28;20029;-64
2021/07/12 01:23:06;;;;;;;59.28;34.25;;;;;;;15.83;81.17;101515.94;5053984;28;20033;-62
2021/07/12 01:26:09;;;;;;;60.03;34.63;;;;;;;15.82;81.64;101518.66;5070279;28;20029;-64
2021/07/12 01:28:40;;;;;;;58.33;35.28;;;;;;;15.83;81.65;101515.03;5074126;28;20028;-64
2021/07/12 01:31:30;;;;;;;55.60;32.70;;;;;;;15.82;81.26;101519.53;5072496;28;20104;-64
2021/07/12 01:34:44;;;;;;;63.60;34.88;;;;;;;15.83;81.64;101520.38;5072313;28;20037;-65
2021/07/12 01:37:47;;;;;;;58.30;32.90;;;;;;;15.92;81.84;101519.00;4953660;28;20035;-64
2021/07/12 01:40:25;;;;;;;59.80;33.33;;;;;;;15.93;82.02;101510.06;4953845;29;20027;-64
2021/07/12 01:42:58;;;;;;;70.03;38.00;;;;;;;15.95;81.67;101518.88;4952048;29;20039;-64
2021/07/12 01:45:27;;;;;;;64.07;37.20;;;;;;;15.97;81.92;101516.94;4951889;29;20034;-64
2021/07/12 01:48:26;;;;;;;61.65;36.00;;;;;;;16.02;81.38;101515.75;4953646;29;20072;-65
2021/07/12 01:50:56;;;;;;;62.58;36.70;;;;;;;16.04;81.23;101513.84;4953342;29;20027;-64
2021/07/12 01:53:38;;;;;;;58.90;35.55;;;;;;;16.05;81.93;101507.56;4951839;29;20031;-64
2021/07/12 01:56:23;;;;;;;64.78;37.75;;;;;;;16.07;81.80;101509.28;4951902;29;20074;-61
2021/07/12 01:59:06;;;;;;;63.65;36.33;;;;;;;16.07;81.68;101498.59;4877768;29;20127;-65
2021/07/12 02:01:33;;;;;;;59.92;34.25;;;;;;;16.09;81.38;101489.53;4877546;29;20048;-61
2021/07/12 02:04:03;;;;;;;58.28;33.70;;;;;;;16.11;81.72;101500.13;4878599;29;20029;-65
2021/07/12 02:06:33;;;;;;;65.75;35.38;;;;;;;16.10;81.47;101498.41;4877911;29;20064;-61
2021/07/12 02:08:59;;;;;;;59.65;35.40;;;;;;;16.10;81.17;101509.97;4876896;29;20043;-61
2021/07/12 02:11:25;;;;;;;60.17;36.00;;;;;;;16.11;81.46;101503.66;4877675;29;20482;-60
2021/07/12 02:13:51;;;;;;;53.58;31.55;;;;;;;16.11;81.71;101492.97;4930270;28;20042;-61
2021/07/12 02:16:18;;;;;;;52.53;31.88;;;;;;;16.16;81.64;101500.72;4990679;28;20046;-61
2021/07/12 02:18:45;;;;;;;61.13;33.97;;;;;;;16.21;81.02;101498.66;4991528;28;20150;-61
2021/07/12 02:21:11;;;;;;;56.80;34.08;;;;;;;16.19;80.89;101485.38;4991455;28;20027;-61
2021/07/12 02:23:39;;;;;;;59.67;34.80;;;;;;;16.18;81.41;101489.00;4989779;28;20046;-63
2021/07/12 02:26:05;;;;;;;60.13;34.95;;;;;;;16.17;81.67;101486.41;4991559;28;20030;-65
2021/07/12 02:28:32;;;;;;;59.75;36.13;;;;;;;16.17;81.27;101486.41;4977576;28;20511;-64
2021/07/12 02:30:58;;;;;;;64.15;37.08;;;;;;;16.19;81.42;101481.84;4979298;28;20553;-64
2021/07/12 02:33:25;;;;;;;57.95;33.40;;;;;;;16.17;81.55;101476.56;4988168;28;20042;-65
2021/07/12 02:35:53;;;;;;;59.58;36.25;;;;;;;16.17;81.30;101473.91;5020411;28;20037;-64
2021/07/12 02:38:18;;;;;;;57.78;32.08;;;;;;;16.19;81.60;101477.38;5054080;28;20485;-62
2021/07/12 02:40:46;;;;;;;54.10;30.92;;;;;;;16.20;81.75;101471.06;5053979;28;20028;-61
2021/07/12 02:43:12;;;;;;;63.08;35.78;;;;;;;16.17;81.94;101460.53;5052571;28;20029;-65
2021/07/12 02:45:39;;;;;;;64.95;37.10;;;;;;;16.14;81.98;101450.06;5052770;28;20021;-61
2021/07/12 02:48:04;;;;;;;63.97;35.78;;;;;;;16.15;81.86;101454.44;5052635;28;20044;-63
2021/07/12 02:50:31;;;;;;;58.17;32.88;;;;;;;16.17;81.90;101452.53;5071219;28;20469;-64
2021/07/12 02:53:15;;;;;;;62.25;35.20;;;;;;;16.19;82.08;101455.13;5054314;28;20025;-64
2021/07/12 02:55:42;;;;;;;56.70;33.92;;;;;;;16.19;81.82;101449.78;5052657;28;20033;-65
2021/07/12 02:58:07;;;;;;;60.97;35.05;;;;;;;16.19;82.02;101442.63;5052669;28;20052;-64
2021/07/12 03:00:32;;;;;;;56.70;34.22;;;;;;;16.22;82.02;101444.25;5053650;28;20473;-64
2021/07/12 03:02:58;;;;;;;57.85;33.83;;;;;;;16.22;81.92;101438.91;5053657;28;20112;-60
2021/07/12 03:05:23;;;;;;;59.78;35.05;;;;;;;16.22;82.11;101436.25;5052504;28;20020;-63
2021/07/12 03:08:13;;;;;;;62.13;35.42;;;;;;;16.23;81.98;101432.63;5052087;28;20033;-63
2021/07/12 03:10:44;;;;;;;63.28;34.88;;;;;;;16.24;82.06;101436.13;5053336;28;20516;-64
2021/07/12 03:13:15;;;;;;;55.05;33.75;;;;;;;16.26;82.22;101437.78;5053355;28;20430;-63
2021/07/12 03:15:50;;;;;;;62.25;35.63;;;;;;;16.27;81.88;101435.97;5052289;28;20444;-65
2021/07/12 03:18:22;;;;;;;57.80;35.60;;;;;;;16.28;81.86;101432.31;5052278;28;20025;-64
2021/07/12 03:20:49;;;;;;;;;;;;;;;16.26;82.63;101423.56;5054541;28;20043;-65
2021/07/12 03:23:16;;;;;;;59.45;32.88;;;;;;;16.25;82.86;101422.69;5039188;28;19916;-62
2021/07/12 03:25:47;;;;;;;65.32;35.42;;;;;;;16.24;82.56;101421.00;5056235;28;20028;-64
2021/07/12 03:28:13;;;;;;;60.47;35.08;;;;;;;16.24;83.05;101430.78;5056358;28;20033;-62
2021/07/12 03:30:41;;;;;;;64.50;37.33;;;;;;;16.22;82.57;101420.22;5056242;28;20493;-64
2021/07/12 03:33:07;;;;;;;61.97;35.80;;;;;;;16.19;82.53;101412.38;5057696;28;20082;-64
2021/07/12 03:35:44;;;;;;;65.15;36.50;;;;;;;16.19;82.87;101410.56;5056349;28;20029;-62
2021/07/12 03:38:14;;;;;;;58.92;34.10;;;;;;;16.17;83.11;101414.28;5055959;28;20025;-64
2021/07/12 03:40:41;;;;;;;67.07;37.08;;;;;;;16.16;83.20;101413.44;5056101;28;20029;-65
2021/07/12 03:43:11;;;;;;;61.53;35.85;;;;;;;16.15;83.15;101410.81;5058140;28;20055;-65
2021/07/12 03:45:38;;;;;;;62.75;36.75;;;;;;;16.14;83.18;101419.78;5056107;28;20021;-65
2021/07/12 03:48:05;;;;;;;59.75;34.88;;;;;;;16.14;83.09;101420.66;5056061;28;20021;-65
2021/07/12 03:50:30;;;;;;;60.60;35.13;;;;;;;16.16;83.20;101423.22;5055661;28;20116;-64
2021/07/12 03:52:56;;;;;;;64.32;37.47;;;;;;;16.18;82.61;101413.31;5057745;28;20178;-64
2021/07/12 03:55:23;;;;;;;63.85;36.90;;;;;;;16.19;82.94;101413.22;5055539;28;20111;-65
2021/07/12 03:57:50;;;;;;;65.47;36.58;;;;;;;16.20;82.98;101419.44;5055724;28;20071;-65
2021/07/12 04:00:19;;;;;;;69.50;37.42;;;;;;;16.22;83.58;101415.72;5055392;28;20485;-65
2021/07/12 04:02:45;;;;;;;66.80;37.40;;;;;;;16.27;83.33;101417.28;5056473;28;20112;-64
2021/07/12 04:05:11;;;;;;;62.33;36.65;;;;;;;16.30;82.91;101417.91;5056383;28;20088;-64
2021/07/12 04:07:38;;;;;;;62.22;36.30;;;;;;;16.33;83.06;101423.09;5055617;28;20094;-62
2021/07/12 04:10:06;;;;;;;60.47;35.38;;;;;;;16.39;82.67;101421.84;5055280;28;20108;-62
2021/07/12 04:12:32;;;;;;;57.53;34.90;;;;;;;16.40;82.51;101418.25;5055801;28;20029;-61
2021/07/12 04:14:58;;;;;;;64.28;36.65;;;;;;;16.41;82.57;101419.09;5055501;28;20055;-60
2021/07/12 04:17:24;;;;;;;61.42;36.53;;;;;;;16.38;82.53;101414.78;5055327;28;20032;-60
2021/07/12 04:19:52;;;;;;;62.22;37.80;;;;;;;16.37;82.79;101408.59;5055038;28;20029;-61
2021/07/12 04:22:18;;;;;;;65.60;37.35;;;;;;;16.35;83.00;101407.81;5055337;28;20029;-65
2021/07/12 04:24:43;;;;;;;68.88;38.15;;;;;;;16.33;82.85;101404.41;5057451;28;20029;-65
2021/07/12 04:27:09;;;;;;;66.22;38.17;;;;;;;16.37;82.69;101394.38;5055460;28;20032;-61
2021/07/12 04:29:34;;;;;;;63.55;37.13;;;;;;;16.39;83.03;101392.47;5054982;28;20057;-62
2021/07/12 04:32:00;;;;;;;66.22;39.05;;;;;;;16.37;83.24;101399.72;5054358;28;20048;-61
2021/07/12 04:34:27;;;;;;;67.18;38.28;;;;;;;16.41;83.43;101393.22;5054312;28;20499;-65
2021/07/12 04:36:52;;;;;;;70.90;39.20;;;;;;;16.45;83.23;101397.44;5073624;28;20162;-64
2021/07/12 04:39:18;;;;;;;65.47;37.75;;;;;;;16.47;82.86;101392.00;5074254;28;20108;-61
2021/07/12 04:41:43;;;;;;;63.42;36.50;;;;;;;16.51;83.06;101385.53;5056881;28;20392;-63
2021/07/12 04:44:08;;;;;;;58.25;34.22;;;;;;;16.53;82.69;101384.47;5075076;28;20150;-66
2021/07/12 04:46:33;;;;;;;65.28;37.78;;;;;;;16.59;83.09;101379.72;5071282;28;20115;-66
2021/07/12 04:48:59;;;;;;;56.10;34.35;;;;;;;16.67;83.15;101375.56;5074803;28;20036;-61
2021/07/12 04:51:24;;;;;;;64.07;38.17;;;;;;;16.73;81.89;101374.34;5074866;28;20107;-62
2021/07/12 04:53:50;;;;;;;64.22;37.63;;;;;;;16.76;82.62;101371.47;5072758;28;20108;-65
2021/07/12 04:56:15;;;;;;;61.80;37.60;;;;;;;16.79;82.11;101367.75;5066420;28;20396;-62
2021/07/12 04:58:48;;;;;;;60.58;36.95;;;;;;;16.87;81.90;101363.63;5074758;28;20468;-67
2021/07/12 05:01:13;;;;;;;63.28;36.75;;;;;;;16.98;81.60;101372.84;5074385;28;20047;-62
2021/07/12 05:03:41;;;;;;;63.90;37.28;;;;;;;17.07;81.24;101363.38;5074127;28;20059;-63
2021/07/12 05:06:06;;;;;;;58.28;35.70;;;;;;;17.09;81.71;101364.13;5070183;28;20048;-66
2021/07/12 05:08:32;;;;;;;52.67;33.20;;;;;;;17.16;80.93;101355.63;5056007;28;20052;-66
2021/07/12 05:10:58;;;;;;;58.95;34.63;;;;;;;17.24;80.83;101349.75;5056512;28;20021;-63
2021/07/12 05:13:23;;;;;;;49.45;31.00;;;;;;;17.36;80.43;101361.47;5071083;28;20055;-64
2021/07/12 05:15:49;;;;;;;59.97;35.25;;;;;;;17.41;80.38;101354.00;5072615;28;20560;-65
2021/07/12 05:18:14;;;;;;;52.33;33.38;;;;;;;17.46;80.22;101356.41;5068109;28;20032;-65
2021/07/12 05:20:40;;;;;;;52.03;33.22;;;;;;;17.53;80.01;101345.19;5063048;28;20032;-65
2021/07/12 05:23:05;;;;;;;50.67;32.33;;;;;;;17.74;79.42;101354.56;5073630;28;20384;-63
2021/07/12 05:25:31;;;;;;;51.28;33.47;;;;;;;17.97;78.48;101342.31;5073882;28;20056;-64
2021/07/12 05:27:56;;;;;;;50.22;32.00;;;;;;;18.17;77.26;101336.44;5065512;28;20071;-65
2021/07/12 05:30:22;;;;;;;49.38;31.58;;;;;;;18.49;76.08;101349.44;5058589;28;20017;-64
2021/07/12 05:32:47;;;;;;;47.65;31.33;;;;;;;18.70;75.83;101350.72;5073552;28;20045;-64
2021/07/12 05:35:13;;;;;;;46.08;31.10;;;;;;;18.91;74.03;101346.50;5074052;28;20127;-65
2021/07/12 05:37:39;;;;;;;46.45;30.35;;;;;;;19.02;74.34;101351.09;5072242;28;20028;-64
2021/07/12 05:40:06;;;;;;;42.45;29.15;;;;;;;19.31;73.67;101356.19;5072026;28;20032;-64
2021/07/12 05:42:32;;;;;;;41.83;29.30;;;;;;;19.43;72.89;101354.41;5055633;28;20033;-64
2021/07/12 05:44:57;;;;;;;39.55;27.88;;;;;;;19.69;71.62;101348.91;5072860;28;20086;-64
2021/07/12 05:47:22;;;;;;;41.17;28.98;;;;;;;19.88;70.66;101340.34;5073281;28;20021;-63
2021/07/12 05:49:48;;;;;;;39.63;27.67;;;;;;;19.89;71.06;101334.84;5071928;28;20380;-65
2021/07/12 05:52:13;;;;;;;38.00;26.95;;;;;;;19.76;70.80;101334.88;5073285;28;20472;-65
2021/07/12 05:54:38;;;;;;;42.35;28.52;;;;;;;19.70;71.39;101342.56;5072969;28;20091;-65
2021/07/12 05:57:04;;;;;;;38.50;27.58;;;;;;;19.73;71.13;101342.31;5073105;28;20056;-64
2021/07/12 05:59:29;;;;;;;43.63;29.00;;;;;;;19.83;71.05;101337.16;5071517;28;20107;-65
2021/07/12 06:01:55;;;;;;;41.90;29.15;;;;;;;19.78;71.79;101337.44;5071556;28;20476;-64
2021/07/12 06:04:20;;;;;;;39.63;28.25;;;;;;;19.81;71.77;101345.28;5073216;28;20407;-65
2021/07/12 06:06:45;;;;;;;43.20;29.13;;;;;;;19.80;70.90;101336.34;5072914;28;20040;-64
2021/07/12 06:09:11;;;;;;;36.78;26.58;;;;;;;19.80;70.69;101333.69;5071335;28;20423;-66
2021/07/12 06:11:36;;;;;;;37.38;27.40;;;;;;;19.81;71.32;101323.81;5071268;28;20035;-65
2021/07/12 06:14:02;;;;;;;38.00;27.80;;;;;;;19.77;71.04;101325.84;5072789;28;20021;-65
2021/07/12 06:16:27;;;;;;;40.28;27.70;;;;;;;19.77;71.99;101328.53;5067133;28;20028;-60
2021/07/12 06:18:53;;;;;;;35.65;25.67;;;;;;;19.92;71.75;101331.06;5056596;28;20400;-62
2021/07/12 06:21:18;;;;;;;37.67;28.05;;;;;;;20.02;70.26;101331.22;5054304;28;20060;-62
2021/07/12 06:23:43;;;;;;;36.30;26.85;;;;;;;20.13;70.80;101323.19;5056571;28;20496;-63
2021/07/12 06:26:09;;;;;;;36.50;27.50;;;;;;;20.18;70.76;101325.50;5067082;28;20074;-64
2021/07/12 06:28:34;;;;;;;38.90;27.50;;;;;;;20.28;70.53;101330.03;5070760;28;20024;-59
2021/07/12 06:30:59;;;;;;;38.38;27.15;;;;;;;20.39;70.10;101331.03;5069711;28;20134;-60
2021/07/12 06:33:27;;;;;;;36.17;25.73;;;;;;;20.52;70.64;101329.06;5072744;28;20473;-64
2021/07/12 06:35:53;;;;;;;34.80;25.08;;;;;;;20.72;69.00;101332.06;5072520;28;20024;-62
2021/07/12 06:38:19;;;;;;;30.83;23.35;;;;;;;20.94;67.68;101333.88;5073068;28;20019;-61
2021/07/12 06:40:44;;;;;;;29.83;21.90;;;;;;;21.17;66.33;101340.06;5067664;28;20033;-62
2021/07/12 06:43:09;;;;;;;28.08;21.73;;;;;;;21.38;64.99;101344.66;5064036;28;20480;-60
2021/07/12 06:45:34;;;;;;;25.42;18.95;;;;;;;21.50;64.24;101345.50;5073104;28;20111;-65
2021/07/12 06:48:00;;;;;;;29.05;22.20;;;;;;;21.49;62.87;101343.78;5072546;28;20472;-66
2021/07/12 06:50:25;;;;;;;26.02;20.90;;;;;;;21.57;64.31;101344.88;5071021;28;20024;-65
2021/07/12 06:52:51;;;;;;;28.40;21.45;;;;;;;21.68;62.77;101333.19;5053034;28;20461;-64
2021/07/12 06:55:16;;;;;;;28.80;21.13;;;;;;;21.70;62.98;101333.94;5051597;28;20033;-65
2021/07/12 06:57:42;;;;;;;27.25;20.70;;;;;;;21.67;63.09;101325.25;5052535;28;20384;-65
2021/07/12 07:00:08;;;;;;;23.65;19.38;;;;;;;21.84;62.29;101331.88;5057424;28;20037;-63
2021/07/12 07:02:35;;;;;;;26.55;20.48;;;;;;;21.77;61.78;101331.56;5058637;28;20029;-65
2021/07/12 07:05:02;;;;;;;25.60;21.13;;;;;;;21.66;61.99;101326.22;5068707;28;20032;-65
2021/07/12 07:07:27;;;;;;;24.13;19.10;;;;;;;21.55;62.73;101327.97;5072364;28;20404;-65
2021/07/12 07:09:52;;;;;;;24.02;18.98;;;;;;;21.48;62.53;101324.03;5072040;28;20029;-66
2021/07/12 07:12:18;;;;;;;25.55;18.40;;;;;;;21.40;62.18;101318.47;5072612;28;20025;-65
2021/07/12 07:14:43;;;;;;;25.48;20.08;;;;;;;21.30;63.15;101318.34;5069667;28;20044;-63
2021/07/12 07:17:08;;;;;;;25.55;19.80;;;;;;;21.27;63.37;101314.06;5070191;28;20033;-63
2021/07/12 07:19:34;;;;;;;19.85;15.50;;;;;;;21.40;63.42;101308.53;5067984;28;20094;-63
2021/07/12 07:21:59;;;;;;;26.25;19.83;;;;;;;21.44;62.50;101301.03;5072415;28;20028;-67
2021/07/12 07:24:25;;;;;;;23.70;17.70;;;;;;;21.43;63.34;101310.97;5059111;28;20381;-66
2021/07/12 07:26:50;;;;;;;27.58;21.15;;;;;;;21.48;62.87;101313.25;5071098;28;20425;-64
2021/07/12 07:29:16;;;;;;;26.58;20.00;;;;;;;21.58;62.70;101311.53;5072540;28;20020;-65
2021/07/12 07:31:42;;;;;;;24.17;19.52;;;;;;;21.68;62.18;101308.09;5072040;28;20514;-61
2021/07/12 07:34:08;;;;;;;26.40;21.20;;;;;;;21.66;62.57;101310.88;5071714;28;20040;-62
2021/07/12 07:36:34;;;;;;;23.52;19.15;;;;;;;21.71;61.98;101314.06;5071052;28;20058;-63
2021/07/12 07:38:59;;;;;;;26.75;19.58;;;;;;;21.84;62.68;101302.22;5071893;28;20028;-62
2021/07/12 07:41:25;;;;;;;25.60;20.60;;;;;;;21.87;62.21;101299.28;5066633;28;20027;-64
2021/07/12 07:43:50;;;;;;;26.67;19.55;;;;;;;21.96;61.66;101301.19;5072201;28;20025;-63
2021/07/12 07:46:15;;;;;;;22.73;19.38;;;;;;;22.13;61.56;101298.88;5070826;28;20040;-64
2021/07/12 07:48:41;;;;;;;25.50;20.45;;;;;;;22.22;61.01;101295.38;5071381;28;20021;-62
2021/07/12 07:51:06;;;;;;;25.48;19.67;;;;;;;22.29;60.86;101301.94;5071740;28;20531;-64
2021/07/12 07:53:32;;;;;;;24.27;18.15;;;;;;;22.57;59.86;101299.53;5071476;28;20556;-64
2021/07/12 07:55:57;;;;;;;21.88;18.42;;;;;;;22.63;59.22;101300.84;5070840;28;20029;-63
2021/07/12 07:58:22;;;;;;;22.77;18.60;;;;;;;22.56;58.62;101295.16;5041800;28;20032;-64
2021/07/12 08:00:48;;;;;;;22.60;18.13;;;;;;;22.69;59.23;101293.03;5051967;28;20051;-63
2021/07/12 08:03:13;;;;;;;21.10;18.10;;;;;;;22.96;58.31;101301.50;5051879;28;20021;-64
2021/07/12 08:05:38;;;;;;;23.40;19.77;;;;;;;22.90;58.67;101284.88;5034701;28;20048;-63
2021/07/12 08:08:04;;;;;;;23.65;17.63;;;;;;;23.12;57.98;101277.53;5059257;28;20031;-64
2021/07/12 08:10:30;;;;;;;20.85;18.15;;;;;;;23.35;57.59;101285.38;5061526;28;20074;-64
2021/07/12 08:12:56;;;;;;;18.92;16.63;;;;;;;23.50;57.07;101281.25;5065552;28;20055;-64
2021/07/12 08:15:21;;;;;;;21.67;18.75;;;;;;;23.64;56.08;101274.53;5060862;28;20477;-64
2021/07/12 08:17:48;;;;;;;23.67;18.30;;;;;;;23.72;57.02;101277.41;5060107;28;20028;-62
2021/07/12 08:20:16;;;;;;;20.48;16.20;;;;;;;24.14;55.11;101273.47;5066293;28;20464;-64
2021/07/12 08:22:42;;;;;;;21.70;16.83;;;;;;;24.24;54.38;101269.91;5074598;28;20068;-61
2021/07/12 08:25:08;;;;;;;22.17;18.40;;;;;;;24.11;55.51;101268.38;5070211;28;20107;-60
2021/07/12 08:27:35;;;;;;;21.92;17.27;;;;;;;24.11;55.84;101267.53;5073975;28;20032;-65
2021/07/12 08:30:01;;;;;;;21.58;17.65;;;;;;;24.30;56.15;101267.44;5073059;28;20031;-60
2021/07/12 08:32:26;;;;;;;20.27;16.50;;;;;;;24.58;53.92;101264.78;5074122;28;20025;-60
2021/07/12 08:34:52;;;;;;;19.45;16.15;;;;;;;24.59;53.84;101260.19;5072342;28;20511;-63
2021/07/12 08:37:18;;;;;;;20.48;14.93;;;;;;;24.67;53.06;101261.19;5062283;28;20059;-61
2021/07/12 08:39:43;;;;;;;20.25;16.20;;;;;;;24.65;54.03;101259.63;5058686;28;20102;-60
2021/07/12 08:42:13;;;;;;;17.42;14.00;;;;;;;25.05;53.91;101254.81;5070283;28;20025;-62
2021/07/12 08:44:39;;;;;;;16.20;12.73;;;;;;;25.38;52.30;101258.69;5067543;28;20020;-61
2021/07/12 08:47:08;;;;;;;19.38;14.50;;;;;;;26.21;50.77;101264.75;5066921;28;20098;-65
2021/07/12 08:49:34;;;;;;;15.45;12.52;;;;;;;27.37;47.90;101255.94;5064819;28;20098;-63
2021/07/12 08:52:03;;;;;;;15.68;13.27;;;;;;;28.61;44.26;101259.28;5062768;28;20021;-64
2021/07/12 08:54:28;;;;;;;15.02;11.95;;;;;;;29.10;42.84;101257.31;5059982;28;20120;-61
2021/07/12 08:56:54;;;;;;;11.68;9.13;;;;;;;29.10;41.65;101251.88;5069383;28;20059;-64
2021/07/12 08:59:30;;;;;;;16.15;11.85;;;;;;;28.32;43.86;101250.91;5073143;28;20553;-63
2021/07/12 09:02:16;;;;;;;14.32;11.02;;;;;;;27.81;44.47;101249.31;5074112;28;20099;-61
2021/07/12 09:04:46;;;;;;;14.15;11.80;;;;;;;27.85;45.67;101241.66;5073374;28;20073;-64
2021/07/12 09:07:14;;;;;;;14.63;11.30;;;;;;;28.55;43.49;101242.81;5071461;28;20392;-63
2021/07/12 09:09:40;;;;;;;14.45;11.35;;;;;;;29.48;42.68;101242.91;5063049;28;20017;-61
2021/07/12 09:12:17;;;;;;;10.50;8.35;;;;;;;29.94;39.88;101240.09;5060816;28;20029;-64
2021/07/12 09:15:01;;;;;;;14.13;10.48;;;;;;;28.83;42.95;101248.63;5073038;28;20041;-63
2021/07/12 09:17:35;;;;;;;14.10;11.52;;;;;;;28.26;43.60;101247.00;5065621;28;20033;-63
2021/07/12 09:20:04;;;;;;;13.70;10.40;;;;;;;28.05;44.85;101243.00;5070504;28;21586;-62
2021/07/12 09:22:32;;;;;;;14.43;11.40;;;;;;;27.88;45.25;101242.16;5057320;28;20025;-62
2021/07/12 09:25:00;;;;;;;14.38;11.82;;;;;;;27.62;45.61;101235.06;5056635;28;20021;-62
2021/07/12 09:27:31;;;;;;;13.52;9.77;;;;;;;27.87;44.07;101245.06;5072065;28;20021;-63
2021/07/12 09:29:57;;;;;;;;;;;;;;;28.32;43.40;101243.59;5068768;28;20033;-63
2021/07/12 09:32:30;;;;;;;12.90;7.63;;;;;;;28.47;42.86;101230.06;5070817;28;19916;-63
2021/07/12 09:35:01;;;;;;;10.50;7.65;;;;;;;27.90;43.50;101234.66;5065913;28;20027;-63
2021/07/12 09:37:26;;;;;;;10.10;7.00;;;;;;;27.28;44.94;101227.88;5065546;28;20017;-64
2021/07/12 09:39:53;;;;;;;10.68;6.88;;;;;;;27.14;44.95;101228.56;5065345;28;20043;-64
2021/07/12 09:42:18;;;;;;;8.73;5.40;;;;;;;27.38;43.93;101233.16;5071025;28;20021;-64
2021/07/12 09:44:46;;;;;;;7.53;5.13;;;;;;;27.44;44.29;101228.94;5073545;28;20107;-64
2021/07/12 09:47:16;;;;;;;8.30;6.10;;;;;;;27.56;44.75;101229.44;5067985;28;20279;-64
2021/07/12 09:49:42;;;;;;;6.93;5.50;;;;;;;27.73;43.75;101216.69;5071399;28;20471;-63
2021/07/12 09:52:11;;;;;;;8.43;5.20;;;;;;;27.74;43.71;101232.81;5063180;28;20036;-64
2021/07/12 09:54:38;;;;;;;8.73;5.25;;;;;;;27.71;43.50;101237.75;5035162;28;20041;-65
2021/07/12 09:57:05;;;;;;;11.38;4.72;;;;;;;28.07;42.57;101229.19;5061783;28;20067;-62
2021/07/12 09:59:32;;;;;;;5.97;4.45;;;;;;;28.34;42.15;101213.44;5071540;28;20028;-64
2021/07/12 10:01:58;;;;;;;6.60;4.40;;;;;;;27.83;44.65;101213.75;5066473;28;20384;-63
2021/07/12 10:04:24;;;;;;;8.90;4.85;;;;;;;27.98;43.43;101212.03;5054641;28;20593;-64
2021/07/12 10:06:52;;;;;;;7.40;4.90;;;;;;;28.09;43.11;101219.81;5064113;28;20048;-61
2021/07/12 10:09:21;;;;;;;8.20;3.90;;;;;;;28.09;43.13;101213.53;5040756;28;20079;-65
2021/07/12 10:11:48;;;;;;;9.18;6.32;;;;;;;27.79;43.48;101207.84;5069645;28;20468;-62
2021/07/12 10:14:13;;;;;;;9.43;5.90;;;;;;;27.63;44.87;101206.81;5066953;28;20033;-64
2021/07/12 10:16:39;;;;;;;8.05;6.20;;;;;;;27.24;43.64;101210.22;5060089;28;20076;-64
2021/07/12 10:19:06;;;;;;;7.55;5.35;;;;;;;27.03;45.42;101202.56;5064718;28;20148;-62
2021/07/12 10:21:49;;;;;;;8.13;4.60;;;;;;;26.92;45.41;101201.03;5052875;28;20055;-64
2021/07/12 10:24:16;;;;;;;8.05;4.78;;;;;;;26.55;47.29;101205.00;5057018;28;20036;-61
2021/07/12 10:26:50;;;;;;;9.52;4.63;;;;;;;26.53;47.57;101200.75;5069036;28;20043;-63
2021/07/12 10:29:21;;;;;;;6.80;4.30;;;;;;;26.53;46.08;101203.47;5060017;28;20044;-61
2021/07/12 10:32:23;;;;;;;6.70;3.60;;;;;;;26.56;46.00;101194.97;5057297;28;20051;-61
2021/07/12 10:34:57;;;;;;;7.80;4.85;;;;;;;26.55;45.15;101202.28;5011678;28;20049;-60
2021/07/12 10:37:35;;;;;;;5.13;3.72;;;;;;;26.57;44.56;101197.50;5030557;28;20521;-61
2021/07/12 10:40:15;;;;;;;7.20;3.50;;;;;;;26.55;44.69;101196.84;5028700;28;20045;-62
2021/07/12 10:42:48;;;;;;;6.30;3.70;;;;;;;26.54;45.37;101199.72;5019065;28;20548;-62
2021/07/12 10:45:34;;;;;;;8.48;3.75;;;;;;;26.62;45.90;101202.47;5029992;28;20038;-65
2021/07/12 10:48:13;;;;;;;7.05;4.50;;;;;;;26.76;46.72;101199.13;5024835;28;20155;-64
2021/07/12 10:50:43;;;;;;;7.32;3.85;;;;;;;27.00;45.81;101211.06;5028824;28;20175;-61
2021/07/12 10:53:14;;;;;;;5.78;4.03;;;;;;;26.86;45.24;101204.41;5030704;28;20067;-62
2021/07/12 10:55:40;;;;;;;5.32;3.53;;;;;;;26.94;44.51;101207.13;5026925;28;20103;-62
2021/07/12 10:58:17;;;;;;;5.18;2.90;;;;;;;27.07;42.76;101211.22;5019490;28;20038;-62
2021/07/12 11:00:46;;;;;;;5.13;3.45;;;;;;;27.02;43.71;101208.16;5030437;28;20037;-63
2021/07/12 11:03:34;;;;;;;4.78;2.90;;;;;;;27.13;42.47;101205.13;5014324;28;20022;-63
2021/07/12 11:06:00;;;;;;;4.82;3.35;;;;;;;27.29;43.11;101196.97;5011379;28;20053;-65
2021/07/12 11:08:48;;;;;;;4.28;3.30;;;;;;;27.20;43.99;101203.44;5010664;28;20042;-63
2021/07/12 11:11:19;;;;;;;6.53;3.60;;;;;;;27.01;44.07;101199.19;5042453;28;20076;-65
2021/07/12 11:13:52;;;;;;;5.50;3.50;;;;;;;26.95;44.24;101191.69;5054720;28;20041;-65
2021/07/12 11:16:23;;;;;;;5.28;3.15;;;;;;;26.75;43.92;101199.28;5059961;28;20036;-64
2021/07/12 11:18:49;;;;;;;5.63;3.00;;;;;;;26.67;45.05;101197.38;5063358;28;20429;-65